Time;durP1;ratioP1;P1;durP2;ratioP2;P2;SDS_P1;SDS_P2;PMS_P1;PMS_P2;Temp;Humidity;BMP_temperature;BMP_pressure;BME280_temperature;BME280_humidity;BME280_pressure;Samples;Min_cycle;Max_cycle;Signal;HPM_P1;HPM_P2
2022/04/04 00:00:14;;;;;;;5.00;2.90;;;;;;;2.14;65.06;100706.59;4887665;29;20036;-74
2022/04/04 00:02:40;;;;;;;5.50;3.10;;;;;;;2.11;64.78;100711.72;4888246;29;20051;-75
2022/04/04 00:05:06;;;;;;;5.72;3.08;;;;;;;2.01;65.23;100706.16;4887195;29;20037;-74
2022/04/04 00:07:31;;;;;;;8.55;3.08;;;;;;;1.97;65.12;100708.69;4889581;29;20468;-74
2022/04/04 00:09:56;;;;;;;6.75;3.25;;;;;;;1.96;65.36;100708.63;4887500;29;20055;-74
2022/04/04 00:12:22;;;;;;;6.97;3.17;;;;;;;1.91;65.48;100705.00;4888012;29;20041;-74
2022/04/04 00:14:48;;;;;;;6.93;3.28;;;;;;;1.88;66.40;100699.69;4888913;29;20040;-74
2022/04/04 00:17:14;;;;;;;6.00;3.25;;;;;;;1.90;66.98;100696.31;4886244;29;20068;-74
2022/04/04 00:19:40;;;;;;;4.95;3.10;;;;;;;1.86;66.55;100696.16;4889161;29;20097;-74
2022/04/04 00:22:07;;;;;;;6.45;3.60;;;;;;;1.80;66.73;100695.97;4887702;29;20048;-74
2022/04/04 00:24:32;;;;;;;6.47;2.67;;;;;;;1.77;66.69;100699.34;4887406;29;20037;-74
2022/04/04 00:26:58;;;;;;;5.35;2.92;;;;;;;1.69;67.05;100701.72;4897526;29;20623;-75
2022/04/04 00:29:24;;;;;;;5.30;3.15;;;;;;;1.66;66.37;100699.00;4893629;29;20097;-74
2022/04/04 00:31:50;;;;;;;4.35;2.85;;;;;;;1.59;65.98;100697.03;4886741;29;20099;-74
2022/04/04 00:34:15;;;;;;;6.47;3.45;;;;;;;1.53;66.70;100694.25;4888034;29;20886;-75
2022/04/04 00:36:43;;;;;;;6.63;3.10;;;;;;;1.53;67.04;100694.25;4886562;29;20052;-74
2022/04/04 00:39:09;;;;;;;7.78;3.22;;;;;;;1.46;67.24;100687.06;4889167;29;20036;-74
2022/04/04 00:41:34;;;;;;;5.97;3.38;;;;;;;1.43;67.47;100697.38;4886827;29;20401;-74
2022/04/04 00:43:59;;;;;;;7.38;3.45;;;;;;;1.36;67.91;100685.88;4886240;29;20032;-74
2022/04/04 00:46:24;;;;;;;7.88;3.33;;;;;;;1.29;68.12;100690.00;4888491;29;20504;-74
2022/04/04 00:48:50;;;;;;;6.63;3.83;;;;;;;1.31;68.60;100683.13;4885814;29;20147;-75
2022/04/04 00:51:15;;;;;;;4.95;3.17;;;;;;;1.28;68.66;100684.72;4888494;29;20056;-75
2022/04/04 00:53:41;;;;;;;6.22;3.15;;;;;;;1.28;68.52;100682.13;4889112;29;20739;-75
2022/04/04 00:56:08;;;;;;;6.43;3.40;;;;;;;1.23;69.64;100678.47;4891610;29;20055;-74
2022/04/04 00:58:36;;;;;;;5.53;3.25;;;;;;;1.23;69.37;100675.88;4885889;29;20409;-74
2022/04/04 01:01:02;;;;;;;5.15;2.88;;;;;;;1.20;69.63;100686.19;4902451;29;20047;-74
2022/04/04 01:03:28;;;;;;;5.65;3.25;;;;;;;1.15;71.36;100677.34;4887006;29;20044;-75
2022/04/04 01:05:55;;;;;;;6.60;3.38;;;;;;;1.17;70.53;100670.50;4885728;29;20033;-74
2022/04/04 01:08:21;;;;;;;6.88;3.35;;;;;;;1.18;71.00;100675.75;4888651;29;20036;-74
2022/04/04 01:10:47;;;;;;;5.30;2.97;;;;;;;1.16;71.13;100667.00;4886220;29;20032;-75
2022/04/04 01:13:13;;;;;;;7.85;4.38;;;;;;;1.17;71.05;100665.28;4887075;29;20028;-74
2022/04/04 01:15:38;;;;;;;5.88;2.95;;;;;;;1.18;71.05;100662.75;4888035;29;20087;-74
2022/04/04 01:18:06;;;;;;;9.57;4.32;;;;;;;1.12;71.74;100670.31;4885289;29;20033;-73
2022/04/04 01:20:31;;;;;;;6.75;3.47;;;;;;;1.11;71.43;100663.38;4888263;29;20399;-74
2022/04/04 01:22:57;;;;;;;5.15;3.10;;;;;;;1.06;71.64;100663.19;4889482;29;20033;-75
2022/04/04 01:25:28;;;;;;;6.35;3.63;;;;;;;0.93;73.13;100665.34;4887547;29;20044;-74
2022/04/04 01:27:56;;;;;;;8.00;3.40;;;;;;;0.94;71.85;100662.78;4884633;29;20458;-74
2022/04/04 01:30:22;;;;;;;5.68;3.50;;;;;;;0.91;73.10;100656.59;4889545;29;20092;-74
2022/04/04 01:32:49;;;;;;;5.93;3.30;;;;;;;0.95;72.91;100659.38;4887779;29;20179;-74
2022/04/04 01:35:16;;;;;;;5.88;3.97;;;;;;;0.96;72.53;100657.63;4885583;29;20033;-74
2022/04/04 01:37:42;;;;;;;7.03;3.63;;;;;;;0.96;73.61;100660.25;4888214;29;20064;-74
2022/04/04 01:40:07;;;;;;;8.63;4.13;;;;;;;0.95;73.33;100654.16;4886420;29;20481;-74
2022/04/04 01:42:34;;;;;;;7.18;3.83;;;;;;;0.93;73.22;100657.53;4885067;29;20073;-74
2022/04/04 01:45:01;;;;;;;6.63;4.07;;;;;;;0.97;74.46;100652.50;4888073;29;20495;-75
2022/04/04 01:47:26;;;;;;;5.78;3.67;;;;;;;0.97;73.23;100649.91;4888217;29;20044;-75
2022/04/04 01:49:51;;;;;;;5.78;3.67;;;;;;;0.98;74.20;100649.06;4885888;29;20033;-74
2022/04/04 01:52:17;;;;;;;5.90;3.90;;;;;;;1.01;74.70;100650.88;4886474;29;20040;-74
2022/04/04 01:54:42;;;;;;;7.38;4.25;;;;;;;0.97;74.80;100649.91;4894744;29;20045;-74
2022/04/04 01:57:07;;;;;;;6.70;3.67;;;;;;;0.99;74.23;100648.22;4884643;29;20041;-74
2022/04/04 01:59:33;;;;;;;5.55;3.55;;;;;;;1.04;74.36;100638.00;4889868;29;20526;-74
2022/04/04 02:01:58;;;;;;;6.18;3.33;;;;;;;1.11;74.14;100642.56;4888509;29;20510;-74
2022/04/04 02:04:23;;;;;;;6.00;4.18;;;;;;;1.13;74.17;100645.22;4886129;29;20101;-74
2022/04/04 02:06:49;;;;;;;6.82;3.85;;;;;;;1.15;74.77;100644.44;4902443;29;20052;-74
2022/04/04 02:09:14;;;;;;;6.15;3.95;;;;;;;1.17;74.56;100642.78;4902362;29;20444;-74
2022/04/04 02:11:40;;;;;;;6.80;3.65;;;;;;;1.21;74.68;100635.97;4884706;29;20040;-74
2022/04/04 02:14:06;;;;;;;8.15;4.00;;;;;;;1.25;75.53;100633.50;4886557;29;20049;-74
2022/04/04 02:16:31;;;;;;;6.85;4.38;;;;;;;1.27;75.57;100629.25;4886881;29;20036;-74
2022/04/04 02:18:56;;;;;;;5.93;3.97;;;;;;;1.28;74.62;100631.03;4891431;29;20084;-74
2022/04/04 02:21:22;;;;;;;7.10;4.57;;;;;;;1.24;75.88;100626.56;4888539;29;20045;-74
2022/04/04 02:23:48;;;;;;;6.55;3.88;;;;;;;1.24;76.36;100629.16;4889429;29;20060;-74
2022/04/04 02:26:13;;;;;;;6.32;3.65;;;;;;;1.27;75.59;100629.25;4887598;29;20037;-74
2022/04/04 02:28:39;;;;;;;7.38;3.88;;;;;;;1.26;75.45;100626.63;4891088;29;20075;-73
2022/04/04 02:31:04;;;;;;;7.57;4.20;;;;;;;1.24;74.90;100616.16;4887004;29;20033;-74
2022/04/04 02:33:30;;;;;;;6.43;4.00;;;;;;;1.24;76.27;100617.88;4889486;29;20047;-74
2022/04/04 02:35:56;;;;;;;6.70;4.18;;;;;;;1.25;75.48;100619.63;4889783;29;20044;-74
2022/04/04 02:38:24;;;;;;;5.97;3.85;;;;;;;1.27;75.64;100615.38;4889157;29;20044;-75
2022/04/04 02:40:51;;;;;;;6.85;3.55;;;;;;;1.26;75.95;100614.50;4890902;29;20048;-74
2022/04/04 02:43:17;;;;;;;6.07;4.13;;;;;;;1.28;75.81;100614.53;4888976;29;20052;-74
2022/04/04 02:45:42;;;;;;;6.57;4.07;;;;;;;1.30;75.88;100608.53;4889573;29;20119;-74
2022/04/04 02:48:08;;;;;;;6.07;3.92;;;;;;;1.41;75.80;100608.00;4897490;29;20139;-74
2022/04/04 02:50:34;;;;;;;8.85;3.85;;;;;;;1.46;75.28;100611.63;4888236;29;20072;-75
2022/04/04 02:53:00;;;;;;;6.70;3.95;;;;;;;1.47;75.58;100605.63;4890479;29;20040;-74
2022/04/04 02:58:09;;;;;;;8.07;4.80;;;;;;;1.39;76.11;100607.06;4891663;29;20047;-74
2022/04/04 03:00:34;;;;;;;5.68;4.10;;;;;;;1.41;74.92;100608.00;4888124;29;20040;-74
2022/04/04 03:03:00;;;;;;;7.03;4.43;;;;;;;1.33;75.46;100612.97;4889769;29;20124;-75
2022/04/04 03:05:25;;;;;;;7.68;4.50;;;;;;;1.26;75.36;100601.50;4887998;29;20040;-75
2022/04/04 03:07:52;;;;;;;6.32;3.90;;;;;;;1.24;75.89;100616.16;4891697;29;20424;-75
2022/04/04 03:10:18;;;;;;;7.10;4.35;;;;;;;1.19;75.74;100603.84;4894962;29;20033;-75
2022/04/04 03:12:49;;;;;;;5.82;4.00;;;;;;;1.15;76.69;100618.44;4888494;29;20047;-74
2022/04/04 03:15:19;;;;;;;6.45;4.03;;;;;;;1.10;76.39;100604.41;4896961;29;20393;-75
2022/04/04 03:17:47;;;;;;;8.73;4.88;;;;;;;1.03;76.08;100599.84;4887779;29;20048;-74
2022/04/04 03:20:14;;;;;;;8.25;4.35;;;;;;;1.04;75.55;100604.19;4893124;29;20033;-74
2022/04/04 03:22:45;;;;;;;10.27;4.35;;;;;;;0.99;75.32;100598.84;4886994;29;20076;-74
2022/04/04 03:25:13;;;;;;;9.30;5.30;;;;;;;0.96;74.91;100596.16;4888978;29;20044;-75
2022/04/04 03:27:40;;;;;;;5.80;4.03;;;;;;;0.93;75.01;100595.16;4885866;29;20036;-74
2022/04/04 03:30:12;;;;;;;7.88;4.75;;;;;;;0.90;74.61;100592.47;4887313;29;20476;-75
2022/04/04 03:32:37;;;;;;;7.55;4.60;;;;;;;0.86;73.74;100589.78;4888779;29;20037;-74
2022/04/04 03:35:04;;;;;;;7.90;3.65;;;;;;;0.88;73.46;100588.09;4889273;29;20096;-75
2022/04/04 03:37:31;;;;;;;7.05;4.22;;;;;;;0.87;73.58;100594.13;4884560;29;20036;-75
2022/04/04 03:39:57;;;;;;;6.50;4.03;;;;;;;0.81;72.48;100586.13;4892845;29;20029;-74
2022/04/04 03:42:22;;;;;;;6.90;3.85;;;;;;;0.78;72.67;100582.53;4887771;29;20515;-74
2022/04/04 03:44:48;;;;;;;6.45;3.97;;;;;;;0.82;72.04;100585.31;4890446;29;20041;-74
2022/04/04 03:47:13;;;;;;;6.10;3.83;;;;;;;0.83;72.00;100583.56;4891270;29;20084;-74
2022/04/04 03:49:39;;;;;;;7.70;4.28;;;;;;;0.83;71.57;100568.88;4887726;29;20041;-74
2022/04/04 03:52:05;;;;;;;7.97;4.27;;;;;;;0.78;71.15;100569.53;4888484;29;20135;-74
2022/04/04 03:54:31;;;;;;;6.60;3.83;;;;;;;0.78;71.96;100575.63;4888667;29;20131;-74
2022/04/04 03:56:57;;;;;;;8.65;3.65;;;;;;;0.80;70.92;100570.50;4890930;29;20551;-75
2022/04/04 03:59:23;;;;;;;6.40;3.88;;;;;;;0.80;70.91;100570.50;4886552;29;20045;-74
2022/04/04 04:01:48;;;;;;;9.82;3.75;;;;;;;0.82;71.19;100566.22;4888594;29;20075;-74
2022/04/04 04:04:14;;;;;;;8.07;3.90;;;;;;;0.81;70.48;100565.34;4890133;29;20045;-74
2022/04/04 04:06:39;;;;;;;6.73;4.60;;;;;;;0.84;70.47;100560.25;4887064;29;20119;-75
2022/04/04 04:09:04;;;;;;;5.78;3.75;;;;;;;0.85;70.77;100558.53;4889320;29;20056;-74
2022/04/04 04:11:30;;;;;;;7.72;4.50;;;;;;;0.83;70.39;100555.00;4885181;29;20176;-75
2022/04/04 04:13:55;;;;;;;7.75;4.32;;;;;;;0.85;70.48;100548.16;4888247;29;20076;-75
2022/04/04 04:16:22;;;;;;;5.90;3.80;;;;;;;0.85;70.43;100554.22;4906240;29;20052;-75
2022/04/04 04:18:47;;;;;;;6.60;3.80;;;;;;;0.87;69.75;100547.38;4886070;29;20116;-75
2022/04/04 04:21:13;;;;;;;7.50;3.92;;;;;;;0.87;70.06;100549.97;4887153;29;20343;-75
2022/04/04 04:23:40;;;;;;;8.88;4.40;;;;;;;0.88;69.59;100551.72;4889796;29;20028;-75
2022/04/04 04:26:07;;;;;;;6.63;4.32;;;;;;;0.81;70.13;100541.97;4894096;29;20052;-75
2022/04/04 04:28:33;;;;;;;8.40;4.80;;;;;;;0.90;69.59;100545.72;4892633;29;20032;-75
2022/04/04 04:30:59;;;;;;;9.90;5.18;;;;;;;0.94;69.44;100545.84;4890852;29;20484;-75
2022/04/04 04:33:25;;;;;;;8.43;4.90;;;;;;;0.94;69.76;100547.56;4892325;29;20530;-75
2022/04/04 04:35:50;;;;;;;9.57;4.87;;;;;;;0.96;69.50;100544.16;4892001;29;20060;-75
2022/04/04 04:38:16;;;;;;;6.07;4.22;;;;;;;0.96;69.46;100538.09;4885593;29;20570;-75
2022/04/04 04:40:42;;;;;;;7.60;4.50;;;;;;;0.96;69.64;100535.50;4888315;29;20124;-75
2022/04/04 04:43:07;;;;;;;6.97;4.32;;;;;;;0.97;68.85;100535.56;4885483;29;20040;-75
2022/04/04 04:45:33;;;;;;;9.50;4.70;;;;;;;1.00;68.82;100540.84;4890894;29;20044;-75
2022/04/04 04:47:58;;;;;;;9.80;4.68;;;;;;;1.02;68.40;100531.41;4891123;29;20043;-75
2022/04/04 04:50:24;;;;;;;10.15;4.90;;;;;;;1.06;68.79;100529.78;4890797;29;20512;-75
2022/04/04 04:52:50;;;;;;;8.98;4.70;;;;;;;1.06;68.70;100532.38;4889033;29;20399;-75
2022/04/04 04:55:18;;;;;;;10.98;4.72;;;;;;;1.08;68.42;100521.19;4891476;29;20043;-75
2022/04/04 04:57:44;;;;;;;10.38;6.88;;;;;;;1.10;67.91;100521.22;4889905;29;20052;-75
2022/04/04 05:00:12;;;;;;;7.88;4.90;;;;;;;1.07;68.95;100523.72;4890094;29;20045;-75
2022/04/04 05:02:38;;;;;;;10.20;5.93;;;;;;;1.09;68.38;100519.47;4891264;29;20033;-75
2022/04/04 05:05:07;;;;;;;7.97;4.45;;;;;;;1.09;68.51;100516.88;4891768;29;20051;-75
2022/04/04 05:07:32;;;;;;;8.30;4.80;;;;;;;1.10;67.93;100510.81;4888811;29;20112;-75
2022/04/04 05:09:58;;;;;;;10.57;5.03;;;;;;;1.12;68.03;100518.69;4889064;29;20605;-75
2022/04/04 05:12:23;;;;;;;8.60;4.80;;;;;;;1.12;67.80;100514.34;4890016;29;20039;-75
2022/04/04 05:14:49;;;;;;;9.23;5.45;;;;;;;1.11;68.03;100512.59;4888448;29;20047;-75
2022/04/04 05:17:15;;;;;;;9.38;5.45;;;;;;;1.16;68.14;100505.84;4884945;29;20032;-75
2022/04/04 05:19:41;;;;;;;10.15;6.13;;;;;;;1.19;67.78;100502.44;4902340;29;20523;-75
2022/04/04 05:22:07;;;;;;;13.45;6.47;;;;;;;1.18;67.77;100498.97;4886766;29;20660;-75
2022/04/04 05:24:33;;;;;;;11.55;6.00;;;;;;;1.24;67.91;100500.88;4898404;29;20115;-75
2022/04/04 05:26:58;;;;;;;12.40;6.18;;;;;;;1.28;67.98;100501.03;4886882;29;20101;-75
2022/04/04 05:29:26;;;;;;;15.48;6.55;;;;;;;1.31;67.47;100501.13;4888757;29;20183;-75
2022/04/04 05:31:56;;;;;;;14.18;6.72;;;;;;;1.41;67.30;100498.78;4887663;29;20043;-75
2022/04/04 05:34:22;;;;;;;12.65;6.72;;;;;;;1.47;67.24;100496.38;4889417;29;20044;-75
2022/04/04 05:36:49;;;;;;;14.75;7.15;;;;;;;1.48;66.75;100495.53;4891089;29;20408;-75
2022/04/04 05:39:14;;;;;;;12.82;6.90;;;;;;;1.57;67.25;100493.19;4890500;29;20033;-75
2022/04/04 05:41:40;;;;;;;15.07;7.85;;;;;;;1.68;66.68;100496.13;4884392;29;20047;-75
2022/04/04 05:44:06;;;;;;;12.20;7.32;;;;;;;1.69;66.81;100496.16;4890908;29;20048;-75
2022/04/04 05:46:32;;;;;;;12.00;6.75;;;;;;;1.80;66.57;100496.47;4886110;29;20036;-75
2022/04/04 05:48:58;;;;;;;12.98;6.55;;;;;;;1.86;66.31;100490.56;4887787;29;20526;-75
2022/04/04 05:51:24;;;;;;;11.65;6.43;;;;;;;1.89;65.90;100490.66;4890023;29;20031;-75
2022/04/04 05:53:49;;;;;;;16.05;6.65;;;;;;;1.97;65.48;100478.75;4896359;29;20088;-76
2022/04/04 05:56:15;;;;;;;10.57;6.03;;;;;;;2.08;65.31;100486.84;4895278;29;20040;-75
2022/04/04 05:58:40;;;;;;;10.40;6.10;;;;;;;2.14;65.29;100482.66;4888991;29;20060;-75
2022/04/04 06:01:08;;;;;;;9.32;5.70;;;;;;;2.20;64.13;100487.16;4893164;29;20047;-75
2022/04/04 06:03:34;;;;;;;10.38;5.53;;;;;;;2.33;64.00;100484.06;4894037;29;20037;-75
2022/04/04 06:06:01;;;;;;;9.27;5.10;;;;;;;2.44;63.76;100480.81;4890392;29;20056;-75
2022/04/04 06:08:26;;;;;;;9.90;6.10;;;;;;;2.47;63.50;100487.03;4887504;29;20051;-75
2022/04/04 06:10:52;;;;;;;10.60;5.57;;;;;;;2.61;62.96;100470.00;4891187;29;20033;-75
2022/04/04 06:13:19;;;;;;;10.38;5.53;;;;;;;2.79;61.98;100474.78;4891758;29;20517;-75
2022/04/04 06:15:45;;;;;;;9.48;5.78;;;;;;;2.85;61.92;100480.13;4889545;29;20435;-75
2022/04/04 06:18:12;;;;;;;10.98;6.28;;;;;;;2.88;62.03;100476.72;4891102;29;20036;-75
2022/04/04 06:20:38;;;;;;;9.27;6.43;;;;;;;2.94;62.35;100471.69;4886926;29;20048;-75
2022/04/04 06:23:04;;;;;;;9.68;6.82;;;;;;;2.88;61.93;100468.91;4890139;29;20123;-75
2022/04/04 06:25:30;;;;;;;9.70;6.35;;;;;;;2.87;61.70;100461.94;4889909;29;20116;-75
2022/04/04 06:27:55;;;;;;;9.88;6.38;;;;;;;3.01;61.76;100464.88;4894172;29;20052;-75
2022/04/04 06:30:22;;;;;;;8.77;6.20;;;;;;;3.05;61.71;100461.50;4891059;29;20041;-75
2022/04/04 06:32:48;;;;;;;9.35;6.10;;;;;;;3.11;61.23;100461.63;4890762;29;20064;-75
2022/04/04 06:35:14;;;;;;;8.52;6.22;;;;;;;3.20;60.89;100446.22;4888076;29;20040;-75
2022/04/04 06:37:40;;;;;;;8.80;5.85;;;;;;;3.29;61.48;100445.50;4890346;29;20049;-75
2022/04/04 06:40:07;;;;;;;9.45;6.78;;;;;;;3.25;60.85;100448.94;4888085;29;20135;-75
2022/04/04 06:42:41;;;;;;;12.52;7.22;;;;;;;3.40;60.37;100440.53;4890123;29;20484;-75
2022/04/04 06:45:08;;;;;;;11.13;7.20;;;;;;;3.45;60.18;100426.72;4897587;29;20045;-74
2022/04/04 06:47:34;;;;;;;11.45;7.00;;;;;;;3.50;60.28;100430.31;4887873;29;20059;-75
2022/04/04 06:50:00;;;;;;;10.43;6.57;;;;;;;3.63;59.93;100426.22;4889682;29;20492;-75
2022/04/04 06:52:26;;;;;;;10.23;6.43;;;;;;;3.69;59.59;100426.38;4892698;29;20444;-75
2022/04/04 06:54:53;;;;;;;11.23;7.00;;;;;;;3.81;59.40;100430.06;4892761;29;20453;-75
2022/04/04 06:57:19;;;;;;;9.60;6.93;;;;;;;3.87;59.53;100431.06;4890255;29;20608;-75
2022/04/04 06:59:45;;;;;;;11.55;6.63;;;;;;;4.02;58.72;100424.38;4894715;29;20029;-75
2022/04/04 07:02:10;;;;;;;7.57;6.10;;;;;;;4.12;58.24;100427.19;4893577;29;20539;-75
2022/04/04 07:04:37;;;;;;;12.80;6.88;;;;;;;4.27;57.76;100421.38;4891880;29;20056;-75
2022/04/04 07:07:06;;;;;;;9.95;6.85;;;;;;;4.47;57.60;100413.84;4888781;29;20124;-75
2022/04/04 07:09:31;;;;;;;11.73;6.88;;;;;;;4.54;56.84;100407.88;4889571;29;20104;-75
2022/04/04 07:11:57;;;;;;;12.25;6.72;;;;;;;4.53;56.67;100407.84;4888882;29;20041;-75
2022/04/04 07:14:24;;;;;;;10.35;7.13;;;;;;;4.65;56.81;100402.81;4886707;29;20500;-75
2022/04/04 07:16:52;;;;;;;10.48;7.22;;;;;;;4.71;56.12;100396.81;4894652;29;20726;-75
2022/04/04 07:19:18;;;;;;;8.43;6.70;;;;;;;4.89;56.12;100394.47;4888948;29;20051;-75
2022/04/04 07:21:44;;;;;;;7.97;5.82;;;;;;;4.91;55.62;100399.72;4890859;29;20045;-75
2022/04/04 07:24:10;;;;;;;10.00;6.07;;;;;;;4.99;55.21;100391.13;4894317;29;20048;-75
2022/04/04 07:26:35;;;;;;;18.25;6.93;;;;;;;5.03;54.76;100385.09;4891788;29;20032;-76
2022/04/04 07:29:01;;;;;;;8.05;5.82;;;;;;;5.18;54.59;100376.56;4893385;29;20044;-75
2022/04/04 07:31:26;;;;;;;16.45;10.40;;;;;;;5.41;55.27;100373.34;4893721;29;20404;-75
2022/04/04 07:33:51;;;;;;;8.95;5.85;;;;;;;5.53;53.86;100365.66;4891996;29;20044;-75
2022/04/04 07:36:17;;;;;;;14.10;5.97;;;;;;;5.47;53.57;100355.97;4894396;29;20352;-75
2022/04/04 07:38:43;;;;;;;9.30;6.50;;;;;;;5.48;53.48;100357.75;4891238;29;20445;-75
2022/04/04 07:41:08;;;;;;;9.95;5.95;;;;;;;5.57;53.67;100356.09;4893103;29;20040;-75
2022/04/04 07:43:33;;;;;;;11.25;6.60;;;;;;;5.47;52.77;100355.09;4890211;29;20106;-75
2022/04/04 07:45:59;;;;;;;10.10;6.88;;;;;;;5.35;52.47;100350.63;4889265;29;20083;-76
2022/04/04 07:48:25;;;;;;;10.70;7.38;;;;;;;5.45;53.21;100360.34;4886059;29;20044;-75
2022/04/04 07:50:51;;;;;;;13.77;8.77;;;;;;;5.64;53.31;100352.69;4893785;29;20510;-75
2022/04/04 07:53:17;;;;;;;9.27;5.78;;;;;;;5.69;52.18;100351.88;4884299;29;20041;-75
2022/04/04 07:55:43;;;;;;;9.82;5.95;;;;;;;5.79;51.56;100349.34;4906842;29;20060;-75
2022/04/04 07:58:08;;;;;;;7.45;5.68;;;;;;;5.98;51.37;100327.75;4893315;29;20036;-74
2022/04/04 08:00:34;;;;;;;7.43;5.13;;;;;;;6.18;51.16;100325.28;4891711;29;20673;-75
2022/04/04 08:02:59;;;;;;;7.88;5.80;;;;;;;6.31;51.06;100323.66;4885531;29;20052;-75
2022/04/04 08:05:26;;;;;;;9.25;5.57;;;;;;;6.55;49.37;100317.72;4886943;29;20044;-75
2022/04/04 08:07:53;;;;;;;9.73;5.20;;;;;;;6.82;49.01;100314.41;4891076;29;20044;-75
2022/04/04 08:10:18;;;;;;;7.80;5.70;;;;;;;6.90;48.98;100312.69;4894668;29;20029;-75
2022/04/04 08:12:47;;;;;;;7.97;5.35;;;;;;;6.95;47.83;100300.47;4892382;29;20131;-75
2022/04/04 08:15:13;;;;;;;9.07;6.13;;;;;;;7.00;48.24;100301.38;4894547;29;20047;-75
2022/04/04 08:17:39;;;;;;;8.52;6.60;;;;;;;7.10;47.79;100310.16;4889770;29;20077;-75
2022/04/04 08:20:05;;;;;;;9.60;6.40;;;;;;;7.16;48.31;100291.81;4887282;29;20068;-75
2022/04/04 08:22:37;;;;;;;8.85;6.30;;;;;;;7.13;47.67;100288.31;4889704;29;20051;-75
2022/04/04 08:25:03;;;;;;;10.23;7.33;;;;;;;7.22;47.01;100294.44;4891864;29;20066;-75
2022/04/04 08:27:28;;;;;;;8.52;6.78;;;;;;;7.23;46.05;100288.34;4893848;29;20252;-75
2022/04/04 08:29:53;;;;;;;9.13;7.25;;;;;;;7.18;47.04;100286.59;4887330;29;20068;-75
2022/04/04 08:32:19;;;;;;;9.35;6.82;;;;;;;7.18;47.08;100284.84;4887712;29;20084;-75
2022/04/04 08:34:45;;;;;;;11.43;7.85;;;;;;;7.27;46.46;100268.22;4889330;29;20033;-75
2022/04/04 08:37:11;;;;;;;9.75;8.10;;;;;;;7.29;47.33;100274.38;4892259;29;20040;-75
2022/04/04 08:39:36;;;;;;;12.52;8.15;;;;;;;7.16;46.30;100281.31;4889387;29;20095;-75
2022/04/04 08:42:03;;;;;;;15.70;9.02;;;;;;;7.34;47.67;100266.50;4900495;29;20112;-75
2022/04/04 08:44:28;;;;;;;8.52;7.60;;;;;;;7.62;46.74;100256.91;4886641;29;20037;-75
2022/04/04 08:46:53;;;;;;;12.38;8.20;;;;;;;7.60;45.29;100253.44;4888656;29;20044;-75
2022/04/04 08:49:19;;;;;;;16.00;9.02;;;;;;;7.65;45.99;100262.16;4885764;29;20412;-75
2022/04/04 08:51:47;;;;;;;13.32;7.60;;;;;;;7.75;45.30;100271.81;4887471;29;20570;-75
2022/04/04 08:54:12;;;;;;;12.32;8.88;;;;;;;7.85;45.37;100249.06;4888964;29;20047;-75
2022/04/04 08:56:37;;;;;;;12.45;8.88;;;;;;;7.88;44.71;100244.69;4892285;29;20037;-75
2022/04/04 08:59:03;;;;;;;8.82;7.20;;;;;;;7.70;44.35;100263.06;4890899;29;20043;-75
2022/04/04 09:01:28;;;;;;;11.45;7.68;;;;;;;7.78;44.91;100232.44;4887489;29;20084;-75
2022/04/04 09:03:59;;;;;;;13.25;8.02;;;;;;;8.05;44.28;100228.91;4885651;29;20033;-75
2022/04/04 09:06:27;;;;;;;11.38;7.70;;;;;;;8.29;43.17;100219.25;4885292;29;20040;-76
2022/04/04 09:08:52;;;;;;;9.85;7.13;;;;;;;8.41;42.86;100208.75;4888078;29;20124;-75
2022/04/04 09:11:18;;;;;;;12.75;10.48;;;;;;;8.58;43.06;100206.06;4893064;29;20335;-75
2022/04/04 09:13:43;;;;;;;11.40;8.43;;;;;;;8.65;43.93;100202.53;4891535;29;20044;-76
2022/04/04 09:16:10;;;;;;;10.85;9.75;;;;;;;8.94;42.76;100198.91;4888692;29;20597;-75
2022/04/04 09:18:35;;;;;;;10.77;6.90;;;;;;;8.96;41.04;100197.13;4888677;29;20574;-75
2022/04/04 09:21:03;;;;;;;12.95;7.40;;;;;;;8.76;41.42;100195.47;4893909;29;20029;-75
2022/04/04 09:23:33;;;;;;;10.52;7.18;;;;;;;8.76;41.75;100189.34;4887221;29;20040;-75
2022/04/04 09:26:00;;;;;;;9.65;6.60;;;;;;;8.91;41.80;100176.13;4887072;29;20045;-75
2022/04/04 09:28:26;;;;;;;10.23;6.95;;;;;;;8.78;42.20;100175.28;4888749;29;20125;-75
2022/04/04 09:31:08;;;;;;;8.35;6.70;;;;;;;8.67;41.86;100200.78;4890074;29;20131;-75
2022/04/04 09:33:41;;;;;;;8.10;6.35;;;;;;;8.60;41.95;100170.09;4893569;29;20036;-75
2022/04/04 09:36:08;;;;;;;10.00;6.82;;;;;;;8.55;42.57;100161.34;4892035;29;20435;-75
2022/04/04 09:38:34;;;;;;;8.40;6.68;;;;;;;8.76;42.00;100147.22;4885751;29;20045;-75
2022/04/04 09:41:19;;;;;;;7.32;6.22;;;;;;;8.51;42.06;100149.09;4885559;29;20108;-75
2022/04/04 09:43:50;;;;;;;9.88;6.25;;;;;;;8.23;42.78;100141.28;4887936;29;20040;-75
2022/04/04 09:46:15;;;;;;;9.70;6.75;;;;;;;8.55;43.05;100153.47;4887182;29;20678;-75
2022/04/04 09:49:22;;;;;;;8.50;6.15;;;;;;;8.66;41.60;100148.16;4885035;29;20033;-75
2022/04/04 09:51:53;;;;;;;9.32;6.13;;;;;;;8.56;41.94;100115.75;4886424;29;20053;-75
2022/04/04 09:54:24;;;;;;;9.60;6.72;;;;;;;8.87;42.30;100116.47;4893485;29;20071;-75
2022/04/04 09:56:56;;;;;;;8.02;6.13;;;;;;;9.24;42.27;100108.31;4889784;29;20052;-75
2022/04/04 09:59:21;;;;;;;8.63;6.93;;;;;;;9.53;41.04;100110.72;4897514;29;20132;-75
2022/04/04 10:01:47;;;;;;;7.90;5.95;;;;;;;9.30;40.74;100104.75;4886131;29;20116;-75
2022/04/04 10:04:13;;;;;;;9.13;6.43;;;;;;;9.13;39.73;100084.72;4887978;29;20033;-75
2022/04/04 10:06:40;;;;;;;8.18;5.45;;;;;;;8.90;39.75;100091.88;4891912;29;20041;-75
2022/04/04 10:09:06;;;;;;;6.57;4.88;;;;;;;8.98;39.65;100088.31;4889366;29;20484;-76
2022/04/04 10:11:34;;;;;;;10.73;5.95;;;;;;;8.83;39.94;100079.66;4884755;29;20052;-76
2022/04/04 10:14:00;;;;;;;8.10;5.65;;;;;;;8.85;39.50;100083.16;4886640;29;20092;-75
2022/04/04 10:16:26;;;;;;;10.38;5.85;;;;;;;8.98;40.05;100069.03;4886817;29;20551;-76
2022/04/04 10:18:54;;;;;;;7.25;5.13;;;;;;;9.18;39.41;100061.00;4884928;29;20128;-75
2022/04/04 10:21:20;;;;;;;8.15;5.47;;;;;;;9.55;38.65;100051.00;4888858;29;20036;-75
2022/04/04 10:23:50;;;;;;;9.25;5.38;;;;;;;9.21;38.75;100045.16;4889460;29;20033;-76
2022/04/04 10:26:20;;;;;;;6.93;5.18;;;;;;;9.22;38.86;100044.25;4889686;29;20039;-75
2022/04/04 10:28:47;;;;;;;12.65;6.22;;;;;;;9.19;38.77;100037.25;4908618;29;20036;-76
2022/04/04 10:31:20;;;;;;;7.20;5.72;;;;;;;9.08;39.53;100028.59;4888966;29;20028;-75
2022/04/04 10:33:48;;;;;;;8.90;5.80;;;;;;;9.28;39.46;100003.88;4889748;29;20032;-75
2022/04/04 10:36:20;;;;;;;9.25;5.38;;;;;;;9.47;39.01;100010.69;4900335;29;20135;-75
2022/04/04 10:38:54;;;;;;;8.57;5.65;;;;;;;9.86;38.08;100012.00;4886855;29;20040;-76
2022/04/04 10:41:25;;;;;;;8.55;5.85;;;;;;;10.04;37.61;99989.84;4890568;29;20052;-76
2022/04/04 10:43:54;;;;;;;9.63;5.57;;;;;;;10.31;36.43;100008.84;4893486;29;20504;-75
2022/04/04 10:46:24;;;;;;;6.50;4.75;;;;;;;10.15;36.62;100000.25;4894146;29;20044;-75
2022/04/04 10:48:51;;;;;;;9.00;5.22;;;;;;;9.63;37.12;99995.59;4893121;29;20040;-76
2022/04/04 10:51:34;;;;;;;12.52;6.38;;;;;;;9.53;38.23;99981.63;4888597;29;20060;-76
2022/04/04 10:54:07;;;;;;;10.13;6.28;;;;;;;9.78;38.00;99973.47;4889760;29;20096;-76
2022/04/04 10:56:37;;;;;;;8.15;5.43;;;;;;;9.70;38.08;99997.28;4891737;29;20132;-76
2022/04/04 10:59:14;;;;;;;18.63;5.97;;;;;;;9.41;38.54;99973.88;4898768;29;20476;-75
2022/04/04 11:01:42;;;;;;;16.42;5.65;;;;;;;9.61;38.20;99956.06;4891504;29;20029;-75
2022/04/04 11:04:23;;;;;;;8.35;6.47;;;;;;;9.60;38.62;99983.31;4890308;29;20068;-75
2022/04/04 11:09:46;;;;;;;8.98;6.50;;;;;;;9.60;37.72;99935.03;4889915;29;20036;-75
2022/04/04 11:12:13;;;;;;;15.45;6.32;;;;;;;9.39;38.46;99939.66;4915148;29;20041;-75
2022/04/04 11:14:42;;;;;;;8.55;5.85;;;;;;;9.42;38.18;99930.84;4887920;29;20549;-75
2022/04/04 11:17:11;;;;;;;11.60;5.65;;;;;;;9.38;38.55;99931.78;4889895;29;20044;-75
2022/04/04 11:19:49;;;;;;;9.90;6.13;;;;;;;9.47;38.43;99922.91;4889143;29;20069;-74
2022/04/04 11:22:25;;;;;;;8.95;6.10;;;;;;;9.49;38.73;99911.44;4889120;29;20083;-75
2022/04/04 11:24:52;;;;;;;10.63;6.03;;;;;;;9.85;39.00;99919.78;4893215;29;20423;-75
2022/04/04 11:27:19;;;;;;;9.15;5.43;;;;;;;9.60;38.08;99917.47;4897159;29;20041;-75
2022/04/04 11:29:44;;;;;;;8.10;5.30;;;;;;;9.61;38.23;99903.38;4888600;29;20037;-75
2022/04/04 11:32:16;;;;;;;12.75;5.65;;;;;;;9.51;38.59;99907.03;4888152;29;20064;-75
2022/04/04 11:34:42;;;;;;;10.65;5.82;;;;;;;9.79;38.32;99891.75;4895723;29;20041;-75